Terminal Aerodrome Forecast
Issued by NWS

Home | Current Version | Previous Version | Text Only | Print | Product List | Glossary On
Versions: 1 2 3 4 5 6 7 8 9 10 11 12 13 14 15 16 17 18 19 20 21 22
000
FTUS43 KGRB 041700
TAFMTW
TAF
KMTW 041720Z 0418/0518 29016G23KT P6SM SCT035
      TEMPO 0418/0422 BKN035
     FM050000 30007KT P6SM SKC
     FM051700 26009G14KT P6SM SKC=

USA.gov is the U.S. government's official web portal to all federal, state and local government web resources and services.